Chacarita, Costa Rica
Current Conditions -  °F | °C
As of 5:00 PM on Wednesday 22 Oct 2014 (Local Time) from MROC Reporting Station
Drizzle Drizzle  
Wind Chill: 70°   Ceiling: 2000
Heat Index: 70°   Visibility: 0.75mi
Dew Point: 68°   Wind: 14mph
Humidity: 94%   Direction: 260°W
Pressure: 29.97"   Gusts: NA
Location:  9.99°N, 84.78°W
Report Text: MROC 222300Z 26012KT 1200 DZ BR FEW001 SCT005 BKN020 21/20 A2997 NOSIG
Loading
Personal Weather Stations






























Interactive Weather Map
Tropical Storm Tracking
New forecast layout! Learn more

10-Day Weather Forecast

Advertisements
Track Severe Weather on mobile